sensor_id;sensor_type;location;lat;lon;timestamp;P1;P2;P0
78316;PMS7003;67572;50.930;18.276;2023-05-10T00:00:16;9.75;8.75;6.25
78316;PMS7003;67572;50.930;18.276;2023-05-10T00:03:20;14.75;12.75;9.75
78316;PMS7003;67572;50.930;18.276;2023-05-10T00:06:24;11.50;11.50;7.00
78316;PMS7003;67572;50.930;18.276;2023-05-10T00:09:29;4.75;4.75;1.00
78316;PMS7003;67572;50.930;18.276;2023-05-10T00:12:33;9.00;8.00;7.00
78316;PMS7003;67572;50.930;18.276;2023-05-10T00:15:36;13.00;8.00;3.50
78316;PMS7003;67572;50.930;18.276;2023-05-10T00:18:40;5.00;5.00;5.00
78316;PMS7003;67572;50.930;18.276;2023-05-10T00:21:44;9.50;8.00;5.00
78316;PMS7003;67572;50.930;18.276;2023-05-10T00:24:48;15.75;13.00;9.00
78316;PMS7003;67572;50.930;18.276;2023-05-10T00:27:52;9.75;8.75;6.25
78316;PMS7003;67572;50.930;18.276;2023-05-10T00:30:57;13.25;13.25;9.50
78316;PMS7003;67572;50.930;18.276;2023-05-10T00:34:00;7.25;5.50;5.00
78316;PMS7003;67572;50.930;18.276;2023-05-10T00:37:04;6.50;3.25;2.50
78316;PMS7003;67572;50.930;18.276;2023-05-10T00:40:10;8.00;6.75;6.00
78316;PMS7003;67572;50.930;18.276;2023-05-10T00:43:17;14.00;10.00;7.00
78316;PMS7003;67572;50.930;18.276;2023-05-10T00:46:21;6.50;3.75;3.00
78316;PMS7003;67572;50.930;18.276;2023-05-10T00:49:26;8.50;8.50;6.00
78316;PMS7003;67572;50.930;18.276;2023-05-10T00:52:31;10.50;8.75;8.00
78316;PMS7003;67572;50.930;18.276;2023-05-10T00:55:36;12.50;11.00;6.75
78316;PMS7003;67572;50.930;18.276;2023-05-10T00:58:40;6.50;6.25;4.00
78316;PMS7003;67572;50.930;18.276;2023-05-10T01:01:45;12.00;9.00;6.00
78316;PMS7003;67572;50.930;18.276;2023-05-10T01:04:49;10.00;9.00;6.00
78316;PMS7003;67572;50.930;18.276;2023-05-10T01:07:57;5.25;3.00;2.00
78316;PMS7003;67572;50.930;18.276;2023-05-10T01:11:03;6.00;3.00;3.00
78316;PMS7003;67572;50.930;18.276;2023-05-10T01:14:08;7.50;7.00;4.00
78316;PMS7003;67572;50.930;18.276;2023-05-10T01:17:12;9.75;9.75;7.50
78316;PMS7003;67572;50.930;18.276;2023-05-10T01:20:17;9.00;8.50;6.00
78316;PMS7003;67572;50.930;18.276;2023-05-10T01:34:03;10.00;7.25;6.00
78316;PMS7003;67572;50.930;18.276;2023-05-10T01:37:13;9.75;9.25;6.75
78316;PMS7003;67572;50.930;18.276;2023-05-10T01:40:25;9.25;4.50;3.00
78316;PMS7003;67572;50.930;18.276;2023-05-10T01:43:35;11.00;9.00;4.00
78316;PMS7003;67572;50.930;18.276;2023-05-10T01:46:47;10.00;5.25;3.50
78316;PMS7003;67572;50.930;18.276;2023-05-10T01:49:58;10.50;6.50;6.00
78316;PMS7003;67572;50.930;18.276;2023-05-10T01:53:06;6.25;6.25;5.75
78316;PMS7003;67572;50.930;18.276;2023-05-10T01:56:12;9.25;9.25;6.75
78316;PMS7003;67572;50.930;18.276;2023-05-10T01:59:19;9.25;8.50;4.00
78316;PMS7003;67572;50.930;18.276;2023-05-10T02:02:24;7.00;6.00;4.50
78316;PMS7003;67572;50.930;18.276;2023-05-10T02:05:32;9.50;8.50;6.00
78316;PMS7003;67572;50.930;18.276;2023-05-10T02:08:38;9.50;8.00;7.00
78316;PMS7003;67572;50.930;18.276;2023-05-10T02:11:43;7.00;7.00;6.75
78316;PMS7003;67572;50.930;18.276;2023-05-10T02:14:47;13.00;10.50;7.00
78316;PMS7003;67572;50.930;18.276;2023-05-10T02:17:51;6.00;5.50;4.50
78316;PMS7003;67572;50.930;18.276;2023-05-10T02:20:59;9.75;7.00;5.50
78316;PMS7003;67572;50.930;18.276;2023-05-10T02:24:05;9.75;8.00;7.00
78316;PMS7003;67572;50.930;18.276;2023-05-10T02:27:11;10.00;10.00;8.00
78316;PMS7003;67572;50.930;18.276;2023-05-10T02:30:17;14.50;12.75;11.00
78316;PMS7003;67572;50.930;18.276;2023-05-10T02:33:23;8.50;8.50;6.75
78316;PMS7003;67572;50.930;18.276;2023-05-10T02:36:29;10.00;5.00;4.00
78316;PMS7003;67572;50.930;18.276;2023-05-10T02:39:33;7.00;6.00;6.00
78316;PMS7003;67572;50.930;18.276;2023-05-10T02:42:38;8.25;6.75;4.00
78316;PMS7003;67572;50.930;18.276;2023-05-10T02:45:46;9.50;8.50;6.00
78316;PMS7003;67572;50.930;18.276;2023-05-10T02:48:51;6.00;6.00;4.00
78316;PMS7003;67572;50.930;18.276;2023-05-10T02:51:56;6.00;6.00;5.00
78316;PMS7003;67572;50.930;18.276;2023-05-10T02:55:04;10.75;9.25;6.25
78316;PMS7003;67572;50.930;18.276;2023-05-10T02:58:09;7.00;7.00;4.50
78316;PMS7003;67572;50.930;18.276;2023-05-10T03:01:14;11.50;10.00;9.00
78316;PMS7003;67572;50.930;18.276;2023-05-10T03:04:18;10.00;7.00;6.25
78316;PMS7003;67572;50.930;18.276;2023-05-10T03:07:23;8.50;7.50;3.50
78316;PMS7003;67572;50.930;18.276;2023-05-10T03:10:28;15.00;10.00;9.00
78316;PMS7003;67572;50.930;18.276;2023-05-10T03:13:36;13.00;12.00;9.00
78316;PMS7003;67572;50.930;18.276;2023-05-10T03:16:56;10.25;9.25;6.75
78316;PMS7003;67572;50.930;18.276;2023-05-10T03:20:04;14.50;11.50;7.00
78316;PMS7003;67572;50.930;18.276;2023-05-10T03:23:21;12.25;12.25;7.50
78316;PMS7003;67572;50.930;18.276;2023-05-10T03:26:29;17.50;15.50;10.50
78316;PMS7003;67572;50.930;18.276;2023-05-10T03:29:40;15.00;12.75;9.50
78316;PMS7003;67572;50.930;18.276;2023-05-10T03:32:47;10.00;10.00;9.50
78316;PMS7003;67572;50.930;18.276;2023-05-10T03:35:51;14.50;12.25;8.50
78316;PMS7003;67572;50.930;18.276;2023-05-10T03:38:57;7.50;7.50;7.25
78316;PMS7003;67572;50.930;18.276;2023-05-10T03:42:01;11.25;10.00;9.00
78316;PMS7003;67572;50.930;18.276;2023-05-10T03:45:05;12.00;9.00;6.50
78316;PMS7003;67572;50.930;18.276;2023-05-10T03:48:10;11.75;9.00;6.00
78316;PMS7003;67572;50.930;18.276;2023-05-10T03:51:16;12.50;10.00;7.50
78316;PMS7003;67572;50.930;18.276;2023-05-10T03:54:21;9.00;9.00;8.00
78316;PMS7003;67572;50.930;18.276;2023-05-10T03:57:25;11.75;11.00;8.50
78316;PMS7003;67572;50.930;18.276;2023-05-10T04:00:29;10.50;10.50;7.00
78316;PMS7003;67572;50.930;18.276;2023-05-10T04:03:34;9.75;7.50;6.00
78316;PMS7003;67572;50.930;18.276;2023-05-10T04:06:39;11.50;10.00;7.00
78316;PMS7003;67572;50.930;18.276;2023-05-10T04:09:44;8.00;8.00;4.50
78316;PMS7003;67572;50.930;18.276;2023-05-10T04:12:48;7.00;6.50;3.50
78316;PMS7003;67572;50.930;18.276;2023-05-10T04:15:51;12.00;8.50;6.50
78316;PMS7003;67572;50.930;18.276;2023-05-10T04:18:55;12.00;11.00;10.00
78316;PMS7003;67572;50.930;18.276;2023-05-10T04:21:59;11.00;7.00;6.75
78316;PMS7003;67572;50.930;18.276;2023-05-10T04:25:05;13.75;11.00;9.75
78316;PMS7003;67572;50.930;18.276;2023-05-10T04:28:09;10.50;9.25;8.00
78316;PMS7003;67572;50.930;18.276;2023-05-10T04:31:13;12.00;12.00;8.00
78316;PMS7003;67572;50.930;18.276;2023-05-10T04:34:16;12.00;12.00;8.00
78316;PMS7003;67572;50.930;18.276;2023-05-10T04:37:20;14.75;9.50;8.00
78316;PMS7003;67572;50.930;18.276;2023-05-10T04:40:26;11.00;10.00;8.50
78316;PMS7003;67572;50.930;18.276;2023-05-10T04:43:29;10.00;7.00;6.00
78316;PMS7003;67572;50.930;18.276;2023-05-10T04:46:33;8.50;6.50;5.50
78316;PMS7003;67572;50.930;18.276;2023-05-10T04:49:36;13.50;12.25;9.00
78316;PMS7003;67572;50.930;18.276;2023-05-10T04:52:40;13.00;10.00;6.25
78316;PMS7003;67572;50.930;18.276;2023-05-10T04:55:45;12.25;11.50;9.00
78316;PMS7003;67572;50.930;18.276;2023-05-10T04:58:49;6.75;5.00;4.00
78316;PMS7003;67572;50.930;18.276;2023-05-10T05:01:53;11.50;11.50;6.00
78316;PMS7003;67572;50.930;18.276;2023-05-10T05:04:57;8.75;8.75;6.00
78316;PMS7003;67572;50.930;18.276;2023-05-10T05:08:01;11.25;9.00;7.25
78316;PMS7003;67572;50.930;18.276;2023-05-10T05:11:06;9.00;9.00;7.00
78316;PMS7003;67572;50.930;18.276;2023-05-10T05:14:09;12.00;9.00;8.00
78316;PMS7003;67572;50.930;18.276;2023-05-10T05:17:13;4.00;3.00;1.50
78316;PMS7003;67572;50.930;18.276;2023-05-10T05:20:17;5.50;3.00;1.50
78316;PMS7003;67572;50.930;18.276;2023-05-10T05:23:20;13.75;9.75;9.50
78316;PMS7003;67572;50.930;18.276;2023-05-10T05:26:27;6.00;6.00;6.00
78316;PMS7003;67572;50.930;18.276;2023-05-10T05:29:31;6.00;4.50;4.00
78316;PMS7003;67572;50.930;18.276;2023-05-10T05:32:35;8.50;7.00;6.00
78316;PMS7003;67572;50.930;18.276;2023-05-10T05:35:39;5.00;5.00;4.00
78316;PMS7003;67572;50.930;18.276;2023-05-10T05:38:43;9.50;8.00;6.75
78316;PMS7003;67572;50.930;18.276;2023-05-10T05:41:48;7.00;7.00;6.00
78316;PMS7003;67572;50.930;18.276;2023-05-10T05:44:51;6.00;3.00;1.00
78316;PMS7003;67572;50.930;18.276;2023-05-10T05:47:55;6.75;6.25;4.00
78316;PMS7003;67572;50.930;18.276;2023-05-10T05:50:58;10.50;10.25;8.50
78316;PMS7003;67572;50.930;18.276;2023-05-10T05:54:02;9.00;9.00;6.00
78316;PMS7003;67572;50.930;18.276;2023-05-10T05:57:07;1.00;1.00;1.00
78316;PMS7003;67572;50.930;18.276;2023-05-10T06:00:12;9.50;9.50;7.00
78316;PMS7003;67572;50.930;18.276;2023-05-10T06:03:16;6.50;6.50;6.50
78316;PMS7003;67572;50.930;18.276;2023-05-10T06:06:19;3.00;3.00;1.00
78316;PMS7003;67572;50.930;18.276;2023-05-10T06:09:23;3.25;3.25;3.25
78316;PMS7003;67572;50.930;18.276;2023-05-10T06:12:28;5.00;5.00;3.25
78316;PMS7003;67572;50.930;18.276;2023-05-10T06:15:31;9.75;9.75;7.00
78316;PMS7003;67572;50.930;18.276;2023-05-10T06:18:35;9.50;7.50;6.25
78316;PMS7003;67572;50.930;18.276;2023-05-10T06:21:39;12.75;10.00;7.00
78316;PMS7003;67572;50.930;18.276;2023-05-10T06:24:42;7.00;6.00;4.00
78316;PMS7003;67572;50.930;18.276;2023-05-10T06:27:48;3.00;1.00;0.00
78316;PMS7003;67572;50.930;18.276;2023-05-10T06:30:54;3.25;3.25;1.50
78316;PMS7003;67572;50.930;18.276;2023-05-10T06:33:58;5.00;5.00;3.00
78316;PMS7003;67572;50.930;18.276;2023-05-10T06:37:01;4.00;4.00;4.00
78316;PMS7003;67572;50.930;18.276;2023-05-10T06:40:05;4.00;3.75;3.00
78316;PMS7003;67572;50.930;18.276;2023-05-10T06:43:12;8.00;6.00;5.00
78316;PMS7003;67572;50.930;18.276;2023-05-10T06:46:16;9.67;7.00;4.00
78316;PMS7003;67572;50.930;18.276;2023-05-10T06:49:19;6.67;6.67;4.67
78316;PMS7003;67572;50.930;18.276;2023-05-10T06:52:23;10.00;9.00;4.00
78316;PMS7003;67572;50.930;18.276;2023-05-10T06:55:27;1.00;1.00;1.00
78316;PMS7003;67572;50.930;18.276;2023-05-10T06:58:32;4.00;1.67;1.00
78316;PMS7003;67572;50.930;18.276;2023-05-10T07:01:35;4.00;4.00;4.00
78316;PMS7003;67572;50.930;18.276;2023-05-10T07:04:39;6.33;5.67;3.00
78316;PMS7003;67572;50.930;18.276;2023-05-10T07:07:43;3.33;3.33;1.00
78316;PMS7003;67572;50.930;18.276;2023-05-10T07:10:46;4.33;4.00;2.67
78316;PMS7003;67572;50.930;18.276;2023-05-10T07:13:51;2.00;2.00;1.00
78316;PMS7003;67572;50.930;18.276;2023-05-10T07:16:55;2.00;1.67;1.00
78316;PMS7003;67572;50.930;18.276;2023-05-10T07:19:58;5.67;4.33;4.00
78316;PMS7003;67572;50.930;18.276;2023-05-10T07:23:03;6.00;4.33;4.00
78316;PMS7003;67572;50.930;18.276;2023-05-10T07:26:06;0.00;0.00;0.00
78316;PMS7003;67572;50.930;18.276;2023-05-10T07:29:12;4.00;4.00;3.33
78316;PMS7003;67572;50.930;18.276;2023-05-10T07:32:16;3.67;2.00;2.00
78316;PMS7003;67572;50.930;18.276;2023-05-10T07:35:20;4.00;4.00;4.00
78316;PMS7003;67572;50.930;18.276;2023-05-10T07:38:23;5.00;5.00;4.00
78316;PMS7003;67572;50.930;18.276;2023-05-10T07:41:28;5.00;5.00;4.00
78316;PMS7003;67572;50.930;18.276;2023-05-10T07:44:33;7.33;5.00;2.00
78316;PMS7003;67572;50.930;18.276;2023-05-10T07:47:36;4.67;3.33;1.00
78316;PMS7003;67572;50.930;18.276;2023-05-10T07:50:39;1.00;0.33;0.00
78316;PMS7003;67572;50.930;18.276;2023-05-10T07:53:44;4.00;4.00;4.00
78316;PMS7003;67572;50.930;18.276;2023-05-10T07:56:48;5.00;2.00;2.00
78316;PMS7003;67572;50.930;18.276;2023-05-10T07:59:53;7.00;4.33;4.00
78316;PMS7003;67572;50.930;18.276;2023-05-10T08:02:56;6.33;6.33;4.00
78316;PMS7003;67572;50.930;18.276;2023-05-10T08:06:00;5.00;5.00;3.33
78316;PMS7003;67572;50.930;18.276;2023-05-10T08:09:04;4.00;4.00;2.00
78316;PMS7003;67572;50.930;18.276;2023-05-10T08:12:07;2.00;2.00;1.00
78316;PMS7003;67572;50.930;18.276;2023-05-10T08:15:12;0.00;0.00;0.00
78316;PMS7003;67572;50.930;18.276;2023-05-10T08:18:16;2.67;2.67;2.00
78316;PMS7003;67572;50.930;18.276;2023-05-10T08:21:22;4.00;2.00;1.00
78316;PMS7003;67572;50.930;18.276;2023-05-10T08:24:26;2.67;2.67;2.00
78316;PMS7003;67572;50.930;18.276;2023-05-10T08:27:29;2.00;2.00;2.00
78316;PMS7003;67572;50.930;18.276;2023-05-10T08:30:34;4.00;4.00;2.00
78316;PMS7003;67572;50.930;18.276;2023-05-10T08:33:37;2.00;2.00;2.00
78316;PMS7003;67572;50.930;18.276;2023-05-10T08:36:43;0.00;0.00;0.00
78316;PMS7003;67572;50.930;18.276;2023-05-10T08:39:47;1.67;1.67;1.67
78316;PMS7003;67572;50.930;18.276;2023-05-10T08:42:51;1.00;1.00;0.00
78316;PMS7003;67572;50.930;18.276;2023-05-10T08:46:02;1.00;1.00;1.00
78316;PMS7003;67572;50.930;18.276;2023-05-10T08:49:08;3.33;3.33;1.67
78316;PMS7003;67572;50.930;18.276;2023-05-10T08:52:14;4.00;4.00;4.00
78316;PMS7003;67572;50.930;18.276;2023-05-10T08:55:20;2.67;2.67;2.67
78316;PMS7003;67572;50.930;18.276;2023-05-10T08:58:25;4.00;4.00;2.00
78316;PMS7003;67572;50.930;18.276;2023-05-10T09:01:30;5.00;3.33;3.33
78316;PMS7003;67572;50.930;18.276;2023-05-10T09:04:34;4.00;4.00;2.00
78316;PMS7003;67572;50.930;18.276;2023-05-10T09:07:38;5.67;3.33;2.00
78316;PMS7003;67572;50.930;18.276;2023-05-10T09:10:42;1.00;1.00;1.00
78316;PMS7003;67572;50.930;18.276;2023-05-10T09:13:48;2.00;2.00;2.00
78316;PMS7003;67572;50.930;18.276;2023-05-10T09:16:55;1.00;1.00;1.00
78316;PMS7003;67572;50.930;18.276;2023-05-10T09:19:59;1.33;1.33;1.33
78316;PMS7003;67572;50.930;18.276;2023-05-10T09:23:05;1.00;1.00;1.00
78316;PMS7003;67572;50.930;18.276;2023-05-10T09:26:09;6.67;4.00;2.00
78316;PMS7003;67572;50.930;18.276;2023-05-10T09:29:13;4.00;4.00;2.00
78316;PMS7003;67572;50.930;18.276;2023-05-10T09:32:20;3.67;2.33;1.67
78316;PMS7003;67572;50.930;18.276;2023-05-10T09:35:24;3.33;3.33;2.00
78316;PMS7003;67572;50.930;18.276;2023-05-10T09:38:31;6.00;5.00;4.00
78316;PMS7003;67572;50.930;18.276;2023-05-10T09:41:48;1.00;1.00;1.00
78316;PMS7003;67572;50.930;18.276;2023-05-10T09:44:52;2.00;2.00;2.00
78316;PMS7003;67572;50.930;18.276;2023-05-10T09:47:57;2.00;2.00;2.00
78316;PMS7003;67572;50.930;18.276;2023-05-10T09:51:03;4.67;4.33;3.33
78316;PMS7003;67572;50.930;18.276;2023-05-10T09:54:10;7.33;5.00;5.00
78316;PMS7003;67572;50.930;18.276;2023-05-10T09:57:18;2.00;2.00;2.00
78316;PMS7003;67572;50.930;18.276;2023-05-10T10:00:23;6.67;5.33;3.33
78316;PMS7003;67572;50.930;18.276;2023-05-10T10:03:28;4.33;4.33;2.67
78316;PMS7003;67572;50.930;18.276;2023-05-10T10:06:36;3.33;3.33;2.67
78316;PMS7003;67572;50.930;18.276;2023-05-10T10:09:40;5.33;4.33;3.67
78316;PMS7003;67572;50.930;18.276;2023-05-10T10:12:44;3.33;3.33;2.00
78316;PMS7003;67572;50.930;18.276;2023-05-10T10:15:47;5.67;4.00;2.00
78316;PMS7003;67572;50.930;18.276;2023-05-10T10:18:54;5.33;4.00;3.33
78316;PMS7003;67572;50.930;18.276;2023-05-10T10:21:58;3.00;2.00;2.00
78316;PMS7003;67572;50.930;18.276;2023-05-10T10:25:04;2.67;2.67;1.33
78316;PMS7003;67572;50.930;18.276;2023-05-10T10:28:10;3.00;3.00;2.00
78316;PMS7003;67572;50.930;18.276;2023-05-10T10:31:32;9.33;5.67;5.00
78316;PMS7003;67572;50.930;18.276;2023-05-10T10:34:43;5.67;4.33;2.00
78316;PMS7003;67572;50.930;18.276;2023-05-10T10:37:47;2.00;2.00;2.00
78316;PMS7003;67572;50.930;18.276;2023-05-10T10:41:01;2.67;2.67;1.33
78316;PMS7003;67572;50.930;18.276;2023-05-10T10:44:24;5.00;5.00;3.00
78316;PMS7003;67572;50.930;18.276;2023-05-10T10:47:31;2.00;1.67;1.67
78316;PMS7003;67572;50.930;18.276;2023-05-10T10:50:44;3.00;3.00;2.33
78316;PMS7003;67572;50.930;18.276;2023-05-10T10:53:48;2.00;2.00;2.00
78316;PMS7003;67572;50.930;18.276;2023-05-10T11:00:26;5.33;4.33;4.33
78316;PMS7003;67572;50.930;18.276;2023-05-10T11:03:32;5.67;5.67;5.00
78316;PMS7003;67572;50.930;18.276;2023-05-10T11:06:37;2.67;2.67;1.67
78316;PMS7003;67572;50.930;18.276;2023-05-10T11:09:41;3.67;2.00;2.00
78316;PMS7003;67572;50.930;18.276;2023-05-10T11:12:52;1.67;1.67;1.00
78316;PMS7003;67572;50.930;18.276;2023-05-10T11:15:57;5.00;5.00;3.33
78316;PMS7003;67572;50.930;18.276;2023-05-10T11:19:02;4.67;3.33;3.33
78316;PMS7003;67572;50.930;18.276;2023-05-10T11:22:15;3.67;3.67;3.67
78316;PMS7003;67572;50.930;18.276;2023-05-10T11:25:20;2.67;2.67;2.00
78316;PMS7003;67572;50.930;18.276;2023-05-10T11:28:29;3.33;3.33;2.33
78316;PMS7003;67572;50.930;18.276;2023-05-10T11:31:33;2.00;2.00;2.00
78316;PMS7003;67572;50.930;18.276;2023-05-10T11:34:38;3.00;3.00;3.00
78316;PMS7003;67572;50.930;18.276;2023-05-10T11:37:43;5.00;5.00;3.00
78316;PMS7003;67572;50.930;18.276;2023-05-10T11:40:51;4.67;3.67;3.00
78316;PMS7003;67572;50.930;18.276;2023-05-10T11:43:56;3.33;1.00;0.33
78316;PMS7003;67572;50.930;18.276;2023-05-10T11:47:01;6.33;6.33;2.67
78316;PMS7003;67572;50.930;18.276;2023-05-10T11:50:05;3.00;3.00;2.00
78316;PMS7003;67572;50.930;18.276;2023-05-10T11:53:11;6.00;3.00;2.75
78316;PMS7003;67572;50.930;18.276;2023-05-10T11:56:16;5.25;5.00;3.00
78316;PMS7003;67572;50.930;18.276;2023-05-10T11:59:20;4.00;3.00;2.00
78316;PMS7003;67572;50.930;18.276;2023-05-10T12:02:23;5.75;4.75;3.00
78316;PMS7003;67572;50.930;18.276;2023-05-10T12:05:27;5.00;5.00;4.75
78316;PMS7003;67572;50.930;18.276;2023-05-10T12:08:32;2.50;2.50;2.25
78316;PMS7003;67572;50.930;18.276;2023-05-10T12:11:37;5.00;5.00;3.00
78316;PMS7003;67572;50.930;18.276;2023-05-10T12:14:47;4.75;3.00;2.50
78316;PMS7003;67572;50.930;18.276;2023-05-10T12:17:53;4.75;4.50;2.75
78316;PMS7003;67572;50.930;18.276;2023-05-10T12:21:02;2.00;2.00;2.00
78316;PMS7003;67572;50.930;18.276;2023-05-10T12:24:08;4.50;2.75;2.75
78316;PMS7003;67572;50.930;18.276;2023-05-10T12:27:12;2.50;2.50;2.00
78316;PMS7003;67572;50.930;18.276;2023-05-10T12:30:20;6.00;3.00;2.25
78316;PMS7003;67572;50.930;18.276;2023-05-10T12:33:24;2.00;2.00;2.00
78316;PMS7003;67572;50.930;18.276;2023-05-10T12:36:28;5.00;3.50;2.25
78316;PMS7003;67572;50.930;18.276;2023-05-10T12:39:42;5.50;3.00;2.00
78316;PMS7003;67572;50.930;18.276;2023-05-10T12:42:47;2.25;1.00;1.00
78316;PMS7003;67572;50.930;18.276;2023-05-10T12:45:51;3.00;3.00;3.00
78316;PMS7003;67572;50.930;18.276;2023-05-10T12:48:55;6.75;2.75;2.50
78316;PMS7003;67572;50.930;18.276;2023-05-10T12:52:09;4.25;4.25;2.75
78316;PMS7003;67572;50.930;18.276;2023-05-10T12:55:14;4.00;2.50;1.50
78316;PMS7003;67572;50.930;18.276;2023-05-10T12:58:18;4.50;4.50;1.00
78316;PMS7003;67572;50.930;18.276;2023-05-10T13:01:28;2.00;2.00;2.00
78316;PMS7003;67572;50.930;18.276;2023-05-10T13:04:31;5.33;4.33;2.67
78316;PMS7003;67572;50.930;18.276;2023-05-10T13:07:35;2.67;2.00;2.00
78316;PMS7003;67572;50.930;18.276;2023-05-10T13:10:40;2.00;2.00;1.00
78316;PMS7003;67572;50.930;18.276;2023-05-10T13:13:43;2.67;2.00;1.33
78316;PMS7003;67572;50.930;18.276;2023-05-10T13:16:47;6.00;2.75;2.75
78316;PMS7003;67572;50.930;18.276;2023-05-10T13:19:51;2.00;2.00;1.25
78316;PMS7003;67572;50.930;18.276;2023-05-10T13:22:55;6.00;6.00;2.33
78316;PMS7003;67572;50.930;18.276;2023-05-10T13:26:00;5.00;4.33;2.67
78316;PMS7003;67572;50.930;18.276;2023-05-10T13:29:03;3.00;3.00;2.33
78316;PMS7003;67572;50.930;18.276;2023-05-10T13:32:07;3.00;3.00;1.33
78316;PMS7003;67572;50.930;18.276;2023-05-10T13:35:10;5.00;5.00;3.00
78316;PMS7003;67572;50.930;18.276;2023-05-10T13:38:14;2.00;2.00;2.00
78316;PMS7003;67572;50.930;18.276;2023-05-10T13:41:19;3.00;3.00;2.25
78316;PMS7003;67572;50.930;18.276;2023-05-10T13:44:22;3.00;3.00;3.00
78316;PMS7003;67572;50.930;18.276;2023-05-10T13:47:26;3.00;3.00;3.00
78316;PMS7003;67572;50.930;18.276;2023-05-10T13:50:30;3.00;3.00;2.75
78316;PMS7003;67572;50.930;18.276;2023-05-10T13:53:34;14.75;9.50;6.00
78316;PMS7003;67572;50.930;18.276;2023-05-10T13:56:39;2.50;2.50;2.50
78316;PMS7003;67572;50.930;18.276;2023-05-10T13:59:45;5.00;5.00;3.50
78316;PMS7003;67572;50.930;18.276;2023-05-10T14:02:49;5.75;5.25;3.00
78316;PMS7003;67572;50.930;18.276;2023-05-10T14:05:53;5.75;5.75;3.00
78316;PMS7003;67572;50.930;18.276;2023-05-10T14:08:57;7.00;4.00;3.00
78316;PMS7003;67572;50.930;18.276;2023-05-10T14:12:04;3.25;3.00;2.00
78316;PMS7003;67572;50.930;18.276;2023-05-10T14:15:08;7.75;5.50;3.00
78316;PMS7003;67572;50.930;18.276;2023-05-10T14:18:13;4.25;4.25;3.00
78316;PMS7003;67572;50.930;18.276;2023-05-10T14:21:16;4.75;3.00;3.00
78316;PMS7003;67572;50.930;18.276;2023-05-10T14:24:20;4.00;4.00;3.00
78316;PMS7003;67572;50.930;18.276;2023-05-10T14:27:25;6.00;4.25;3.00
78316;PMS7003;67572;50.930;18.276;2023-05-10T14:30:29;3.00;3.00;3.00
78316;PMS7003;67572;50.930;18.276;2023-05-10T14:33:34;2.50;2.25;2.00
78316;PMS7003;67572;50.930;18.276;2023-05-10T14:36:39;5.33;3.00;3.00
78316;PMS7003;67572;50.930;18.276;2023-05-10T14:39:42;2.50;2.00;2.00
78316;PMS7003;67572;50.930;18.276;2023-05-10T14:42:47;2.67;2.67;2.00
78316;PMS7003;67572;50.930;18.276;2023-05-10T14:45:51;5.67;4.33;3.00
78316;PMS7003;67572;50.930;18.276;2023-05-10T14:48:55;3.00;3.00;2.00
78316;PMS7003;67572;50.930;18.276;2023-05-10T14:51:58;5.00;5.00;4.00
78316;PMS7003;67572;50.930;18.276;2023-05-10T14:55:02;5.00;5.00;3.00
78316;PMS7003;67572;50.930;18.276;2023-05-10T14:58:08;2.50;2.50;2.50
78316;PMS7003;67572;50.930;18.276;2023-05-10T15:01:12;2.00;2.00;1.00
78316;PMS7003;67572;50.930;18.276;2023-05-10T15:04:16;7.00;6.00;3.00
78316;PMS7003;67572;50.930;18.276;2023-05-10T15:07:20;3.00;2.00;2.00
78316;PMS7003;67572;50.930;18.276;2023-05-10T15:10:24;5.50;5.50;3.50
78316;PMS7003;67572;50.930;18.276;2023-05-10T15:13:29;6.00;5.00;4.00
78316;PMS7003;67572;50.930;18.276;2023-05-10T15:16:33;6.00;3.50;3.00
78316;PMS7003;67572;50.930;18.276;2023-05-10T15:19:37;4.25;4.25;3.00
78316;PMS7003;67572;50.930;18.276;2023-05-10T15:22:40;3.25;3.25;3.25
78316;PMS7003;67572;50.930;18.276;2023-05-10T15:25:44;3.50;3.50;3.00
78316;PMS7003;67572;50.930;18.276;2023-05-10T15:28:49;2.50;1.25;1.00
78316;PMS7003;67572;50.930;18.276;2023-05-10T15:31:53;1.75;1.75;1.25
78316;PMS7003;67572;50.930;18.276;2023-05-10T15:34:57;2.00;2.00;2.00
78316;PMS7003;67572;50.930;18.276;2023-05-10T15:38:01;4.33;2.00;2.00
78316;PMS7003;67572;50.930;18.276;2023-05-10T15:41:04;3.00;3.00;3.00
78316;PMS7003;67572;50.930;18.276;2023-05-10T15:44:09;3.00;3.00;2.50
78316;PMS7003;67572;50.930;18.276;2023-05-10T15:47:13;6.00;5.00;3.00
78316;PMS7003;67572;50.930;18.276;2023-05-10T15:50:17;6.00;3.00;3.00
78316;PMS7003;67572;50.930;18.276;2023-05-10T15:53:21;4.33;4.33;3.00
78316;PMS7003;67572;50.930;18.276;2023-05-10T15:56:25;5.00;4.33;3.67
78316;PMS7003;67572;50.930;18.276;2023-05-10T15:59:31;2.00;2.00;1.67
78316;PMS7003;67572;50.930;18.276;2023-05-10T16:02:36;5.00;5.00;5.00
78316;PMS7003;67572;50.930;18.276;2023-05-10T16:05:40;6.67;5.67;5.00
78316;PMS7003;67572;50.930;18.276;2023-05-10T16:08:44;5.00;5.00;3.00
78316;PMS7003;67572;50.930;18.276;2023-05-10T16:11:49;9.00;3.00;2.00
78316;PMS7003;67572;50.930;18.276;2023-05-10T16:14:56;3.67;3.67;3.67
78316;PMS7003;67572;50.930;18.276;2023-05-10T16:17:59;4.33;2.67;2.67
78316;PMS7003;67572;50.930;18.276;2023-05-10T16:21:03;7.00;3.67;2.00
78316;PMS7003;67572;50.930;18.276;2023-05-10T16:24:07;5.00;5.00;5.00
78316;PMS7003;67572;50.930;18.276;2023-05-10T16:27:11;6.00;3.00;3.00
78316;PMS7003;67572;50.930;18.276;2023-05-10T16:30:16;6.00;6.00;5.00
78316;PMS7003;67572;50.930;18.276;2023-05-10T16:33:20;5.67;5.67;2.33
78316;PMS7003;67572;50.930;18.276;2023-05-10T16:36:24;10.00;10.00;7.67
78316;PMS7003;67572;50.930;18.276;2023-05-10T16:39:28;6.00;6.00;5.33
78316;PMS7003;67572;50.930;18.276;2023-05-10T16:42:32;5.67;3.67;3.00
78316;PMS7003;67572;50.930;18.276;2023-05-10T16:45:37;2.33;2.33;2.00
78316;PMS7003;67572;50.930;18.276;2023-05-10T16:48:41;3.67;3.67;3.33
78316;PMS7003;67572;50.930;18.276;2023-05-10T16:51:44;2.00;2.00;1.00
78316;PMS7003;67572;50.930;18.276;2023-05-10T16:54:48;3.67;3.67;2.00
78316;PMS7003;67572;50.930;18.276;2023-05-10T16:57:52;3.33;3.33;1.33
78316;PMS7003;67572;50.930;18.276;2023-05-10T17:01:01;6.00;5.00;3.67
78316;PMS7003;67572;50.930;18.276;2023-05-10T17:04:05;2.00;2.00;0.00
78316;PMS7003;67572;50.930;18.276;2023-05-10T17:07:09;8.00;8.00;5.67
78316;PMS7003;67572;50.930;18.276;2023-05-10T17:10:14;5.00;2.00;2.00
78316;PMS7003;67572;50.930;18.276;2023-05-10T17:13:18;6.00;6.00;2.67
78316;PMS7003;67572;50.930;18.276;2023-05-10T17:16:23;5.00;5.00;4.67
78316;PMS7003;67572;50.930;18.276;2023-05-10T17:19:27;6.00;5.00;4.00
78316;PMS7003;67572;50.930;18.276;2023-05-10T17:22:31;8.33;5.67;5.00
78316;PMS7003;67572;50.930;18.276;2023-05-10T17:25:35;5.00;3.33;3.33
78316;PMS7003;67572;50.930;18.276;2023-05-10T17:28:39;2.00;2.00;2.00
78316;PMS7003;67572;50.930;18.276;2023-05-10T17:31:44;4.00;4.00;3.33
78316;PMS7003;67572;50.930;18.276;2023-05-10T17:34:48;4.67;3.33;2.00
78316;PMS7003;67572;50.930;18.276;2023-05-10T17:37:52;5.00;4.00;2.00
78316;PMS7003;67572;50.930;18.276;2023-05-10T17:40:56;3.33;1.67;1.00
78316;PMS7003;67572;50.930;18.276;2023-05-10T17:44:00;8.00;5.33;5.00
78316;PMS7003;67572;50.930;18.276;2023-05-10T17:47:05;4.00;4.00;4.00
78316;PMS7003;67572;50.930;18.276;2023-05-10T17:50:09;2.67;2.00;1.00
78316;PMS7003;67572;50.930;18.276;2023-05-10T17:53:13;8.67;6.67;5.00
78316;PMS7003;67572;50.930;18.276;2023-05-10T17:56:17;5.00;5.00;2.00